Athens Township, Pennsylvania
Current Conditions -  °F | °C
As of 6:53 AM on Friday 19 Dec 2014 (Local Time) from KBGM Reporting Station
Light Snow Light Snow  
Wind Chill: 15°   Ceiling: 900
Heat Index: 23°   Visibility: 3mi
Dew Point: 21°   Wind: 7mph
Humidity: 92%   Direction: 320°NW
Pressure: 29.99"   Gusts: NA
Location:  41.9771°N, 76.4144°W
Report Text: KBGM 191153Z 32006KT 3SM -SN BR BKN009 OVC018 M05/M06 A2999 RMK AO2 SLP178 P0000 60000 70001 T10501061 11028 21050 53012 $
Loading
Personal Weather Stations






























Interactive Weather Map New forecast layout! Learn more

10-Day Weather Forecast

Advertisements
Track Severe Weather on mobile